Time;durP1;ratioP1;P1;durP2;ratioP2;P2;SDS_P1;SDS_P2;PMS_P1;PMS_P2;Temp;Humidity;BMP_temperature;BMP_pressure;BME280_temperature;BME280_humidity;BME280_pressure;Samples;Min_cycle;Max_cycle;Signal;HPM_P1;HPM_P2
2022/03/09 05:22:34;;;;;;;8.45;4.22;;;;;;;-3.07;72.59;100974.72;5109064;27;20113;-70
2022/03/09 05:24:59;;;;;;;9.40;4.85;;;;;;;-3.11;73.47;100978.41;5109408;28;20093;-72
2022/03/09 05:27:28;;;;;;;9.85;4.30;;;;;;;-3.04;72.27;100971.16;5109531;28;20067;-70
2022/03/09 05:29:54;;;;;;;9.30;5.22;;;;;;;-3.04;72.90;100977.22;5107425;22;20044;-73
2022/03/09 05:32:21;;;;;;;8.10;5.25;;;;;;;-3.05;72.49;100969.47;5088464;28;20135;-73
2022/03/09 05:34:49;;;;;;;7.78;4.40;;;;;;;-3.01;73.22;100978.81;5088920;28;20085;-73
2022/03/09 05:37:15;;;;;;;10.20;5.45;;;;;;;-3.00;73.60;100980.50;5088749;28;20056;-73
2022/03/09 05:39:41;;;;;;;8.25;4.47;;;;;;;-3.09;73.87;100983.53;5086049;28;20088;-73
2022/03/09 05:42:07;;;;;;;9.70;5.13;;;;;;;-3.10;73.58;100980.09;5108807;28;20032;-75
2022/03/09 05:44:32;;;;;;;9.45;5.00;;;;;;;-3.01;72.48;100989.25;5109023;28;20028;-74
2022/03/09 05:46:58;;;;;;;6.65;4.35;;;;;;;-3.09;73.58;100997.41;5109111;28;20039;-75
2022/03/09 05:49:24;;;;;;;8.70;5.40;;;;;;;-3.11;73.97;100994.03;5109033;28;20043;-75
2022/03/09 05:51:52;;;;;;;8.65;5.68;;;;;;;-3.17;74.34;100993.47;5108468;28;20036;-75
2022/03/09 05:54:19;;;;;;;8.80;5.35;;;;;;;-3.19;74.99;100996.16;5090525;28;20081;-73
2022/03/09 05:56:44;;;;;;;8.95;5.78;;;;;;;-3.20;75.11;100996.19;5090615;28;20042;-73
2022/03/09 05:59:11;;;;;;;9.90;5.47;;;;;;;-3.28;74.46;101002.59;5090775;28;20049;-73
2022/03/09 06:01:37;;;;;;;8.75;5.65;;;;;;;-3.24;74.56;101016.34;5108606;28;20032;-73
2022/03/09 06:04:03;;;;;;;8.43;5.15;;;;;;;-3.19;73.67;101009.19;5108776;28;20032;-75
2022/03/09 06:06:29;;;;;;;8.52;5.47;;;;;;;-3.20;74.81;101022.25;5108996;28;20142;-75
2022/03/09 06:08:55;;;;;;;8.50;5.85;;;;;;;-3.12;73.71;101023.63;5073729;28;20039;-75
2022/03/09 06:11:20;;;;;;;8.57;5.68;;;;;;;-3.18;74.24;101025.66;5108680;28;20043;-75
2022/03/09 06:13:46;;;;;;;10.10;6.47;;;;;;;-3.28;73.86;101020.00;5090178;28;20040;-74
2022/03/09 06:16:11;;;;;;;10.20;6.65;;;;;;;-3.21;73.81;101031.84;5108786;28;20058;-75
2022/03/09 06:18:37;;;;;;;7.32;5.18;;;;;;;-3.24;73.69;101025.94;5090002;28;20031;-76
2022/03/09 06:21:03;;;;;;;9.48;5.95;;;;;;;-3.17;73.12;101028.19;5090736;28;20525;-74
2022/03/09 06:23:29;;;;;;;10.13;5.97;;;;;;;-3.10;73.72;101034.84;5090005;28;20593;-75
2022/03/09 06:25:54;;;;;;;7.93;5.35;;;;;;;-3.02;71.90;101045.75;5108435;28;20407;-76
2022/03/09 06:28:20;;;;;;;11.55;6.22;;;;;;;-2.96;72.67;101042.03;5092249;28;20035;-76
2022/03/09 06:30:46;;;;;;;11.07;5.57;;;;;;;-2.80;72.49;101050.03;5074816;28;20047;-74
2022/03/09 06:33:12;;;;;;;9.82;5.40;;;;;;;-2.61;71.42;101043.09;5098978;28;20032;-75
2022/03/09 06:35:37;;;;;;;8.95;5.65;;;;;;;-2.55;71.85;101050.59;5097069;28;20580;-75
2022/03/09 06:38:03;;;;;;;9.30;5.43;;;;;;;-2.43;71.67;101053.56;5095003;28;20040;-75
2022/03/09 06:40:29;;;;;;;9.85;5.60;;;;;;;-2.24;71.13;101059.63;5076546;28;20035;-74
2022/03/09 06:42:55;;;;;;;9.48;5.47;;;;;;;-2.11;71.47;101072.94;5094317;28;20028;-75
2022/03/09 06:45:21;;;;;;;9.82;5.93;;;;;;;-1.99;72.68;101080.22;5094884;28;20044;-75
2022/03/09 06:47:47;;;;;;;17.42;6.13;;;;;;;-1.87;71.79;101070.94;5094665;28;20047;-75
2022/03/09 06:50:13;;;;;;;12.10;5.90;;;;;;;-1.73;71.71;101071.13;5094365;28;20036;-74
2022/03/09 06:52:38;;;;;;;14.90;5.95;;;;;;;-1.61;71.26;101074.91;5093912;28;20185;-74
2022/03/09 06:55:07;;;;;;;16.48;6.97;;;;;;;-1.40;71.08;101079.06;5094454;28;20032;-74
2022/03/09 06:57:33;;;;;;;13.43;6.22;;;;;;;-1.25;69.66;101061.75;5094163;28;20047;-75
2022/03/09 06:59:59;;;;;;;14.13;6.55;;;;;;;-1.05;68.78;101076.41;5076268;28;20040;-75
2022/03/09 07:02:25;;;;;;;12.05;5.80;;;;;;;-0.85;68.10;101078.84;5093731;28;20115;-75
2022/03/09 07:04:52;;;;;;;13.55;6.53;;;;;;;-0.61;67.87;101079.34;5059589;28;20096;-72
2022/03/09 07:07:17;;;;;;;12.50;6.25;;;;;;;-0.41;67.37;101086.97;5093841;28;20226;-72
2022/03/09 07:09:43;;;;;;;14.48;6.13;;;;;;;-0.30;65.03;101087.22;5093827;28;20028;-72
2022/03/09 07:12:09;;;;;;;11.60;6.28;;;;;;;0.00;65.55;101083.88;5093633;28;20403;-72
2022/03/09 07:14:35;;;;;;;11.00;6.00;;;;;;;0.21;65.06;101081.81;5093709;28;20376;-72
2022/03/09 07:17:01;;;;;;;14.65;6.72;;;;;;;0.47;64.85;101069.84;5093761;28;20047;-72
2022/03/09 07:19:27;;;;;;;11.63;6.15;;;;;;;0.80;63.59;101074.91;5093952;28;20028;-72
2022/03/09 07:21:54;;;;;;;10.65;6.25;;;;;;;0.99;62.00;101072.03;5075367;28;20059;-72
2022/03/09 07:24:20;;;;;;;11.80;6.57;;;;;;;0.44;60.73;101070.84;5093557;28;20032;-73
2022/03/09 07:26:46;;;;;;;10.05;6.25;;;;;;;0.84;62.02;101078.16;5093441;28;20032;-72
2022/03/09 07:29:12;;;;;;;12.25;6.43;;;;;;;0.85;60.44;101074.59;5093408;28;20450;-73
2022/03/09 07:31:38;;;;;;;11.23;6.35;;;;;;;0.48;60.11;101082.03;5093352;28;20044;-73
2022/03/09 07:34:04;;;;;;;12.48;7.45;;;;;;;0.57;60.07;101081.47;5075164;28;20051;-73
2022/03/09 07:36:30;;;;;;;13.25;6.90;;;;;;;0.56;60.38;101082.41;5093258;28;20040;-73
2022/03/09 07:38:55;;;;;;;11.13;6.38;;;;;;;0.62;59.89;101089.09;5075200;28;20040;-72
2022/03/09 07:41:21;;;;;;;8.95;5.97;;;;;;;0.91;58.20;101088.19;5093013;28;20067;-72
2022/03/09 07:43:46;;;;;;;13.23;6.80;;;;;;;0.93;58.35;101085.50;5092464;28;20062;-69
2022/03/09 07:46:12;;;;;;;11.52;6.68;;;;;;;1.05;57.46;101083.00;5075247;28;20040;-69
2022/03/09 07:48:38;;;;;;;10.32;5.20;;;;;;;1.19;57.79;101084.78;5093453;28;20048;-71
2022/03/09 07:51:04;;;;;;;10.05;5.65;;;;;;;1.53;57.44;101085.34;5093047;28;20036;-71
2022/03/09 07:53:30;;;;;;;11.13;5.85;;;;;;;1.87;57.79;101084.91;5092828;28;20028;-71
2022/03/09 07:55:56;;;;;;;10.07;6.05;;;;;;;2.07;56.98;101080.19;5093479;28;20031;-72
2022/03/09 07:58:23;;;;;;;8.80;5.63;;;;;;;2.42;56.37;101093.69;5095121;28;20497;-72
2022/03/09 08:00:48;;;;;;;11.88;6.30;;;;;;;2.48;55.57;101093.28;5094567;28;20044;-71
2022/03/09 08:03:14;;;;;;;11.18;6.07;;;;;;;2.81;55.50;101092.00;5094253;28;20042;-72
2022/03/09 08:05:39;;;;;;;9.32;5.88;;;;;;;2.63;53.76;101100.16;5094082;28;20036;-71
2022/03/09 08:08:05;;;;;;;9.57;6.15;;;;;;;2.90;52.83;101100.09;5092945;28;20125;-71
2022/03/09 08:10:31;;;;;;;8.85;5.70;;;;;;;3.26;52.06;101104.66;5093243;28;20108;-71
2022/03/09 08:12:56;;;;;;;10.68;6.07;;;;;;;3.38;50.63;101097.69;5092774;28;20400;-73
2022/03/09 08:15:22;;;;;;;9.00;5.80;;;;;;;3.65;49.74;101104.59;5092879;28;20181;-71
2022/03/09 08:17:48;;;;;;;10.20;5.80;;;;;;;3.76;49.87;101107.34;5094104;28;20070;-72
2022/03/09 08:20:14;;;;;;;8.40;5.55;;;;;;;3.99;48.38;101108.34;5094352;28;20484;-72
2022/03/09 08:22:41;;;;;;;11.18;6.25;;;;;;;4.13;47.75;101102.91;5093336;28;20039;-72
2022/03/09 08:25:08;;;;;;;8.25;6.47;;;;;;;4.01;49.33;101117.81;5074132;28;20078;-72
2022/03/09 08:27:33;;;;;;;8.52;5.60;;;;;;;4.19;49.50;101118.31;5092501;28;20385;-72
2022/03/09 08:29:59;;;;;;;10.82;6.05;;;;;;;4.45;48.40;101111.13;5092323;28;20040;-72
2022/03/09 08:32:24;;;;;;;9.32;5.78;;;;;;;4.30;49.84;101104.31;5092003;28;20044;-72
2022/03/09 08:34:50;;;;;;;7.80;5.57;;;;;;;4.88;47.84;101098.19;5092063;28;20481;-72
2022/03/09 08:37:16;;;;;;;8.07;5.57;;;;;;;5.15;46.61;101108.47;5092222;28;20077;-72
2022/03/09 08:39:45;;;;;;;9.27;5.85;;;;;;;5.11;46.26;101104.38;5073919;28;20093;-72
2022/03/09 08:42:10;;;;;;;10.75;5.55;;;;;;;5.02;46.03;101096.31;5091942;28;20034;-72
2022/03/09 08:44:36;;;;;;;9.30;6.13;;;;;;;4.87;47.84;101103.59;5092184;28;20036;-72
2022/03/09 08:47:02;;;;;;;9.30;6.00;;;;;;;4.93;46.42;101095.22;5092129;28;20032;-72
2022/03/09 08:49:29;;;;;;;11.43;6.55;;;;;;;5.03;46.40;101093.56;5091869;28;20131;-72
2022/03/09 08:51:54;;;;;;;9.63;6.78;;;;;;;5.20;46.22;101094.06;5091643;28;20138;-72
2022/03/09 08:54:21;;;;;;;8.80;5.90;;;;;;;5.27;45.22;101101.38;5091836;28;20024;-72
2022/03/09 08:56:47;;;;;;;8.25;6.07;;;;;;;5.36;44.85;101100.69;5091539;28;20112;-72
2022/03/09 08:59:13;;;;;;;9.48;5.65;;;;;;;5.79;44.64;101094.66;5073768;28;20119;-72
2022/03/09 09:01:38;;;;;;;13.30;7.38;;;;;;;5.79;43.77;101101.75;5057111;28;20088;-72
2022/03/09 09:04:04;;;;;;;10.45;6.10;;;;;;;5.73;42.98;101108.38;5091582;28;20036;-72
2022/03/09 09:06:30;;;;;;;9.18;6.05;;;;;;;6.12;43.14;101109.69;5091829;28;20515;-72
2022/03/09 09:08:55;;;;;;;10.38;6.53;;;;;;;6.28;42.47;101111.09;5091573;28;20028;-72
2022/03/09 09:11:21;;;;;;;8.90;5.90;;;;;;;6.65;41.08;101103.63;5091694;28;20036;-71
2022/03/09 09:13:47;;;;;;;9.98;6.30;;;;;;;7.00;41.13;101092.75;5091729;28;20036;-72
2022/03/09 09:16:13;;;;;;;8.75;5.60;;;;;;;7.42;39.92;101100.63;5073701;28;20043;-71
2022/03/09 09:18:38;;;;;;;9.18;5.82;;;;;;;7.68;39.17;101104.53;5091663;28;20396;-72
2022/03/09 09:21:05;;;;;;;9.77;5.97;;;;;;;7.77;39.46;101101.09;5091509;28;20157;-72
2022/03/09 09:23:31;;;;;;;10.35;6.63;;;;;;;7.95;40.13;101101.25;5091258;28;20044;-72
2022/03/09 09:25:58;;;;;;;9.55;6.30;;;;;;;7.81;37.68;101097.16;5091615;28;20092;-72
2022/03/09 09:28:23;;;;;;;11.68;6.40;;;;;;;8.14;38.45;101093.34;5091481;28;20040;-72
2022/03/09 09:30:49;;;;;;;10.10;6.55;;;;;;;8.68;38.96;101086.72;5073332;28;20039;-72
2022/03/09 09:33:15;;;;;;;12.35;6.22;;;;;;;8.44;38.29;101088.94;5091844;28;20512;-72
2022/03/09 09:35:40;;;;;;;14.38;6.45;;;;;;;8.74;37.68;101079.16;5092170;28;20044;-72
2022/03/09 09:38:08;;;;;;;10.70;6.27;;;;;;;9.04;36.51;101088.78;5091729;28;20058;-72
2022/03/09 09:40:43;;;;;;;10.25;6.45;;;;;;;8.82;38.52;101082.78;5091476;28;20028;-72
2022/03/09 09:43:14;;;;;;;11.13;6.25;;;;;;;9.25;36.16;101079.63;5091520;28;20036;-72
2022/03/09 09:45:41;;;;;;;10.57;6.63;;;;;;;9.30;35.29;101081.00;5091526;28;20313;-72
2022/03/09 09:48:08;;;;;;;10.63;6.78;;;;;;;9.68;35.51;101075.53;5091753;28;20040;-72
2022/03/09 09:50:34;;;;;;;9.32;6.03;;;;;;;10.20;34.10;101072.31;5091231;28;20051;-72
2022/03/09 09:53:05;;;;;;;9.05;5.97;;;;;;;10.18;34.26;101064.47;5091195;28;20051;-72
2022/03/09 09:55:31;;;;;;;11.35;6.75;;;;;;;10.57;34.64;101066.88;5073297;28;20039;-72
2022/03/09 09:57:58;;;;;;;8.45;6.13;;;;;;;10.58;34.90;101057.88;5091276;28;20489;-72
2022/03/09 10:00:24;;;;;;;11.48;5.95;;;;;;;11.42;32.54;101065.31;5091342;28;20035;-72
2022/03/09 10:02:51;;;;;;;8.32;6.00;;;;;;;11.11;31.98;101065.78;5072895;28;20028;-71
2022/03/09 10:05:18;;;;;;;7.88;5.80;;;;;;;11.07;33.23;101058.25;5091214;28;20044;-72
2022/03/09 10:08:03;;;;;;;10.35;5.93;;;;;;;10.84;33.01;101052.59;5074440;28;20469;-72
2022/03/09 10:10:41;;;;;;;11.25;6.57;;;;;;;11.63;32.98;101054.22;5094958;28;20028;-71
2022/03/09 10:13:16;;;;;;;7.93;5.50;;;;;;;12.15;29.03;101051.41;5094717;28;20040;-72
2022/03/09 10:15:42;;;;;;;8.68;5.97;;;;;;;12.54;29.43;101045.44;5095152;28;20036;-72
2022/03/09 10:18:26;;;;;;;10.52;5.88;;;;;;;13.96;27.37;101046.47;5094876;28;20039;-72
2022/03/09 10:20:52;;;;;;;8.43;6.20;;;;;;;13.61;27.07;101053.13;5094799;28;20378;-72
2022/03/09 10:23:21;;;;;;;8.88;5.45;;;;;;;13.98;28.83;101059.66;5094636;28;20050;-72
2022/03/09 10:25:48;;;;;;;10.75;6.28;;;;;;;14.56;26.51;101055.63;5094846;28;20035;-72
2022/03/09 10:28:13;;;;;;;8.20;5.90;;;;;;;14.31;26.16;101061.13;5094515;28;20500;-72
2022/03/09 10:30:41;;;;;;;9.43;6.30;;;;;;;14.01;28.31;101056.63;5094844;28;20032;-72
2022/03/09 10:33:11;;;;;;;;;;;;;;;15.55;24.87;101059.00;5095140;28;20032;-72
2022/03/09 10:35:46;;;;;;;10.00;5.88;;;;;;;15.94;25.11;101056.88;5094559;28;20281;-72
2022/03/09 10:38:14;;;;;;;9.95;6.90;;;;;;;15.22;24.68;101059.38;5094472;28;20508;-71
2022/03/09 10:40:56;;;;;;;10.13;6.60;;;;;;;15.94;24.50;101059.53;5094341;28;20401;-72
2022/03/09 10:43:25;;;;;;;7.07;6.03;;;;;;;15.26;26.38;101063.38;5094251;28;20505;-71
2022/03/09 10:46:05;;;;;;;8.32;6.35;;;;;;;16.26;25.62;101068.19;5094325;28;20068;-71
2022/03/09 10:49:02;;;;;;;9.77;6.55;;;;;;;16.11;24.35;101060.16;5085305;28;20039;-72
2022/03/09 10:52:04;;;;;;;10.68;6.78;;;;;;;16.01;23.81;101056.94;5083282;28;20044;-72
2022/03/09 10:54:32;;;;;;;10.70;6.88;;;;;;;17.47;22.16;101042.88;5071120;28;20051;-72
2022/03/09 10:57:10;;;;;;;9.40;6.20;;;;;;;16.36;24.25;101052.56;5080859;28;20097;-72
2022/03/09 10:59:47;;;;;;;8.05;6.22;;;;;;;17.34;23.42;101042.81;5074038;28;20448;-72
2022/03/09 11:02:15;;;;;;;7.87;6.77;;;;;;;17.86;23.36;101039.56;5086373;28;20122;-71
2022/03/09 11:04:41;;;;;;;7.78;6.22;;;;;;;18.48;22.32;101037.66;5074078;28;20274;-71
2022/03/09 11:07:09;;;;;;;10.27;6.53;;;;;;;17.34;23.03;101043.66;5076586;28;20489;-72
2022/03/09 11:09:38;;;;;;;8.85;7.20;;;;;;;16.16;23.51;101049.66;5083270;28;20059;-71
2022/03/09 11:12:04;;;;;;;7.88;6.03;;;;;;;17.60;22.22;101037.59;5089676;28;20020;-72
2022/03/09 11:14:31;;;;;;;12.43;6.50;;;;;;;18.83;21.18;101032.91;5077094;28;20043;-71
2022/03/09 11:16:57;;;;;;;12.38;7.05;;;;;;;18.67;20.05;101027.94;5079188;28;20031;-72
2022/03/09 11:19:24;;;;;;;9.02;6.25;;;;;;;20.10;19.96;101031.53;5090440;28;20495;-72
2022/03/09 11:21:50;;;;;;;8.13;6.53;;;;;;;19.99;19.88;101029.50;5086173;28;20040;-72
2022/03/09 11:24:17;;;;;;;8.88;6.65;;;;;;;18.74;20.47;101020.69;5079582;28;20438;-72
2022/03/09 11:26:47;;;;;;;10.18;7.18;;;;;;;19.57;20.87;101026.34;5085130;28;20052;-71
2022/03/09 11:29:13;;;;;;;8.50;6.88;;;;;;;19.19;21.73;101023.53;5082022;28;20032;-72
2022/03/09 11:31:51;;;;;;;8.80;7.43;;;;;;;20.21;20.04;101022.72;5091482;28;20139;-72
2022/03/09 11:34:30;;;;;;;11.93;8.70;;;;;;;17.96;21.89;101014.94;5093612;28;20074;-73
2022/03/09 11:36:59;;;;;;;10.73;7.70;;;;;;;17.76;21.71;101019.44;5093475;28;20032;-71
2022/03/09 11:39:25;;;;;;;9.02;7.38;;;;;;;17.66;23.43;101016.25;5093555;28;20043;-72
2022/03/09 11:42:20;;;;;;;9.95;8.18;;;;;;;19.58;19.23;101013.69;5092186;28;20035;-72
2022/03/09 11:44:50;;;;;;;11.18;7.80;;;;;;;19.57;18.80;101010.13;5072890;28;20032;-72
2022/03/09 11:47:17;;;;;;;11.60;7.90;;;;;;;20.86;18.58;101008.91;5072848;28;20036;-71
2022/03/09 11:49:43;;;;;;;9.38;8.00;;;;;;;21.69;18.02;101005.72;5072917;28;20028;-71
2022/03/09 11:52:14;;;;;;;10.52;8.43;;;;;;;20.67;18.03;101008.06;5072534;28;20035;-71
2022/03/09 11:54:44;;;;;;;9.77;8.35;;;;;;;20.09;19.02;101002.81;5079655;28;20036;-71
2022/03/09 11:57:11;;;;;;;12.63;8.82;;;;;;;19.47;19.35;101020.53;5081038;28;20032;-71
2022/03/09 11:59:37;;;;;;;11.45;8.40;;;;;;;20.04;18.22;101010.75;5079611;28;20032;-71
2022/03/09 12:02:13;;;;;;;11.25;9.00;;;;;;;20.29;18.54;101013.50;5092751;28;20085;-71
2022/03/09 12:04:50;;;;;;;11.25;8.02;;;;;;;21.07;17.53;100997.66;5062582;28;20037;-71
2022/03/09 12:07:35;;;;;;;12.18;10.07;;;;;;;20.43;17.44;100998.84;5073151;28;20044;-71
2022/03/09 12:10:05;;;;;;;12.48;9.48;;;;;;;21.80;17.38;100993.28;5084685;28;20036;-71
2022/03/09 12:12:32;;;;;;;11.85;9.30;;;;;;;19.83;19.18;100998.41;5092618;28;20043;-71
2022/03/09 12:15:05;;;;;;;11.70;8.48;;;;;;;20.42;19.07;100997.19;5092721;28;20063;-71
2022/03/09 12:17:37;;;;;;;12.20;9.30;;;;;;;20.94;18.31;100986.16;5092780;28;20439;-71
2022/03/09 12:20:15;;;;;;;11.23;8.93;;;;;;;21.32;17.85;100985.94;5092704;28;20047;-71
2022/03/09 12:23:02;;;;;;;10.40;8.30;;;;;;;22.09;17.01;100986.22;5092249;28;20028;-71
2022/03/09 12:25:45;;;;;;;12.52;9.20;;;;;;;20.89;18.90;100988.69;5092838;28;20036;-71
2022/03/09 12:28:27;;;;;;;10.25;8.32;;;;;;;21.44;17.58;100980.59;5092666;28;20035;-71
2022/03/09 12:30:53;;;;;;;15.10;9.40;;;;;;;20.91;18.33;100979.28;5092724;28;20063;-71
2022/03/09 12:33:25;;;;;;;17.43;9.23;;;;;;;21.14;17.92;100981.34;5092330;28;20035;-71
2022/03/09 12:35:52;;;;;;;10.05;8.40;;;;;;;20.33;19.41;100972.25;5092638;28;20567;-70
2022/03/09 12:38:18;;;;;;;10.13;8.48;;;;;;;20.41;18.70;100962.22;5092193;28;20035;-70
2022/03/09 12:40:48;;;;;;;11.90;8.83;;;;;;;21.00;17.38;100972.53;5092295;28;20028;-70
2022/03/09 12:43:13;;;;;;;11.57;8.52;;;;;;;21.34;17.18;100973.03;5092145;28;20040;-71
2022/03/09 12:45:53;;;;;;;12.18;9.48;;;;;;;20.64;18.26;100965.16;5092350;28;20397;-71
2022/03/09 12:48:20;;;;;;;13.73;9.55;;;;;;;20.46;18.44;100962.41;5092225;28;20111;-70
2022/03/09 12:50:47;;;;;;;11.50;9.68;;;;;;;21.11;17.55;100962.81;5092255;28;20366;-71
2022/03/09 12:53:19;;;;;;;12.93;9.50;;;;;;;21.67;17.10;100956.34;5092027;28;20044;-71
2022/03/09 12:55:46;;;;;;;14.52;10.43;;;;;;;20.57;19.29;100961.69;5092089;28;20039;-70
2022/03/09 12:58:21;;;;;;;10.90;8.93;;;;;;;20.89;18.56;100958.91;5073772;28;20097;-70
2022/03/09 13:00:47;;;;;;;12.43;9.00;;;;;;;21.08;17.36;100952.44;5092261;28;20501;-70
2022/03/09 13:03:13;;;;;;;12.98;9.75;;;;;;;21.33;16.94;100949.69;5091945;28;20549;-70
2022/03/09 13:05:39;;;;;;;11.50;9.00;;;;;;;19.41;19.64;100959.25;5093564;28;20028;-71
2022/03/09 13:08:08;;;;;;;14.48;9.27;;;;;;;18.94;19.71;100947.78;5092753;28;20035;-71
2022/03/09 13:10:49;;;;;;;11.70;9.68;;;;;;;20.37;18.09;100950.19;5093239;28;20035;-70
2022/03/09 13:13:15;;;;;;;13.75;9.63;;;;;;;20.17;18.97;100945.75;5092291;28;20050;-70
2022/03/09 13:15:51;;;;;;;11.73;9.40;;;;;;;19.68;20.11;100946.47;5093261;28;20028;-71
2022/03/09 13:18:28;;;;;;;11.45;9.60;;;;;;;20.82;18.99;100943.56;5092117;28;20044;-71
2022/03/09 13:20:54;;;;;;;14.25;10.30;;;;;;;21.26;17.80;100943.50;5073741;28;20044;-71
2022/03/09 13:23:37;;;;;;;14.38;10.55;;;;;;;20.28;18.13;100942.34;5092272;28;20034;-71
2022/03/09 13:26:39;;;;;;;14.48;9.85;;;;;;;18.77;20.32;100938.44;5092471;28;20497;-71
2022/03/09 13:29:20;;;;;;;12.68;10.05;;;;;;;19.82;19.32;100936.41;5074836;28;20040;-71
2022/03/09 13:32:01;;;;;;;13.25;10.02;;;;;;;20.18;19.16;100925.78;5091358;28;20047;-71
2022/03/09 13:34:30;;;;;;;12.65;9.35;;;;;;;20.22;18.77;100927.00;5091765;28;20092;-71
2022/03/09 13:37:04;;;;;;;11.77;9.55;;;;;;;17.95;20.40;100916.25;5091974;28;20409;-71
2022/03/09 13:39:56;;;;;;;12.02;9.18;;;;;;;19.47;19.57;100917.88;5091567;28;20085;-71
2022/03/09 13:42:29;;;;;;;12.95;9.93;;;;;;;20.30;18.75;100925.91;5087212;28;20052;-71
2022/03/09 13:45:07;;;;;;;12.57;9.30;;;;;;;20.76;18.23;100913.84;5095786;28;20035;-72
2022/03/09 13:47:48;;;;;;;13.45;10.40;;;;;;;20.65;18.03;100911.88;5096303;28;20059;-72
2022/03/09 13:50:32;;;;;;;13.68;10.32;;;;;;;17.74;20.88;100906.47;5095724;28;20036;-71
2022/03/09 13:53:07;;;;;;;12.85;9.77;;;;;;;16.59;23.04;100909.81;5095577;28;20036;-71
2022/03/09 13:55:53;;;;;;;14.95;10.93;;;;;;;16.91;22.97;100905.72;5095786;28;20069;-71
2022/03/09 13:58:24;;;;;;;13.82;9.60;;;;;;;17.76;22.18;100906.28;5095186;28;20116;-72
2022/03/09 14:01:00;;;;;;;13.40;9.65;;;;;;;17.48;21.44;100912.59;5095591;28;20107;-72
2022/03/09 14:03:26;;;;;;;11.52;9.55;;;;;;;17.45;21.34;100904.91;5095277;28;20039;-71
2022/03/09 14:05:54;;;;;;;13.07;9.70;;;;;;;17.59;21.57;100906.59;5077699;28;20389;-72
2022/03/09 14:08:33;;;;;;;10.73;8.65;;;;;;;16.47;23.50;100904.16;5095891;28;20036;-72
2022/03/09 14:11:05;;;;;;;13.80;9.95;;;;;;;16.15;23.86;100904.72;5095396;28;20028;-71
2022/03/09 14:13:33;;;;;;;13.85;9.95;;;;;;;15.61;24.86;100899.84;5095049;28;20031;-71
2022/03/09 14:15:59;;;;;;;14.70;10.43;;;;;;;15.02;25.89;100913.38;5095508;28;20106;-71
2022/03/09 14:18:26;;;;;;;12.40;8.70;;;;;;;14.97;25.11;100902.38;5095330;28;20032;-71
2022/03/09 14:20:51;;;;;;;12.82;8.55;;;;;;;15.23;24.52;100905.38;5094929;28;20432;-71
2022/03/09 14:23:17;;;;;;;11.88;8.88;;;;;;;14.99;27.01;100898.47;5094584;28;20047;-72
2022/03/09 14:25:43;;;;;;;12.40;8.85;;;;;;;14.64;27.93;100892.00;5095191;28;20047;-71
2022/03/09 14:28:09;;;;;;;11.27;8.55;;;;;;;15.12;24.96;100887.06;5094915;28;20123;-71
2022/03/09 14:30:35;;;;;;;12.57;8.85;;;;;;;15.25;23.88;100892.59;5094995;28;20488;-71
2022/03/09 14:33:01;;;;;;;15.15;8.48;;;;;;;15.45;24.00;100879.41;5076578;28;20130;-71
2022/03/09 14:35:26;;;;;;;11.80;7.93;;;;;;;15.20;24.66;100887.00;5094901;28;20035;-71
2022/03/09 14:37:52;;;;;;;10.93;8.10;;;;;;;15.31;24.55;100891.03;5094510;28;20031;-71
2022/03/09 14:40:20;;;;;;;12.35;8.57;;;;;;;14.86;24.26;100882.19;5094615;28;20047;-72
2022/03/09 14:42:46;;;;;;;11.85;8.60;;;;;;;14.72;25.08;100878.50;5094332;28;20040;-72
2022/03/09 14:45:14;;;;;;;11.25;7.35;;;;;;;14.53;25.37;100873.69;5094361;28;20044;-71
2022/03/09 14:47:42;;;;;;;15.70;9.10;;;;;;;13.99;27.31;100874.66;5094542;28;20024;-71
2022/03/09 14:50:08;;;;;;;12.10;8.38;;;;;;;14.11;28.22;100872.41;5094315;28;20043;-71
2022/03/09 14:52:34;;;;;;;14.48;8.15;;;;;;;14.25;26.45;100871.59;5093991;28;20047;-71
2022/03/09 14:54:59;;;;;;;11.80;8.43;;;;;;;14.42;25.69;100866.09;5093736;28;20055;-72
2022/03/09 14:57:25;;;;;;;11.23;7.68;;;;;;;14.59;25.18;100856.88;5094242;28;20040;-71
2022/03/09 14:59:51;;;;;;;11.23;7.43;;;;;;;13.98;26.73;100864.13;5094208;28;20036;-72
2022/03/09 15:02:16;;;;;;;12.85;7.95;;;;;;;14.15;26.72;100868.34;5093661;28;20048;-72
2022/03/09 15:04:42;;;;;;;11.45;7.93;;;;;;;14.24;26.15;100864.56;5094112;28;20032;-72
2022/03/09 15:07:08;;;;;;;9.90;7.43;;;;;;;14.17;26.30;100858.28;5093889;28;20522;-72
2022/03/09 15:09:34;;;;;;;13.82;8.48;;;;;;;14.39;26.45;100872.63;5094077;28;20120;-71
2022/03/09 15:12:05;;;;;;;14.02;7.82;;;;;;;14.01;27.16;100863.75;5075605;28;20039;-72
2022/03/09 15:14:31;;;;;;;11.40;7.55;;;;;;;14.25;25.89;100855.50;5075495;28;20090;-72
2022/03/09 15:16:57;;;;;;;11.45;7.88;;;;;;;14.17;25.87;100858.28;5093855;28;20099;-73
2022/03/09 15:19:26;;;;;;;11.38;7.78;;;;;;;13.88;26.67;100858.19;5093760;28;20085;-70
2022/03/09 15:21:55;;;;;;;11.57;7.68;;;;;;;13.75;27.04;100859.63;5093338;28;20378;-73
2022/03/09 15:24:22;;;;;;;10.82;7.70;;;;;;;13.74;27.78;100857.13;5093779;28;20038;-71
2022/03/09 15:26:48;;;;;;;9.45;7.00;;;;;;;13.78;27.42;100859.28;5093746;28;20043;-71
2022/03/09 15:29:15;;;;;;;10.40;7.05;;;;;;;13.63;28.58;100863.75;5093789;28;20027;-71
2022/03/09 15:31:43;;;;;;;11.60;7.97;;;;;;;13.73;28.21;100856.28;5093690;28;20024;-70
2022/03/09 15:34:09;;;;;;;10.93;6.78;;;;;;;13.61;28.32;100865.75;5093898;28;20289;-70
2022/03/09 15:36:35;;;;;;;10.95;7.60;;;;;;;13.77;27.59;100854.94;5094067;28;20043;-70
2022/03/09 15:39:03;;;;;;;12.63;7.55;;;;;;;13.77;27.41;100860.28;5075039;28;20036;-71
2022/03/09 15:41:29;;;;;;;;;;;;;;;13.86;27.34;100858.38;5093559;28;20039;-71
2022/03/09 15:43:55;;;;;;;10.30;6.38;;;;;;;13.83;28.13;100862.25;5075195;28;20301;-71
2022/03/09 15:46:21;;;;;;;11.73;7.00;;;;;;;13.30;29.00;100863.97;5093188;28;20473;-70
2022/03/09 15:48:47;;;;;;;8.85;6.47;;;;;;;13.40;29.09;100863.72;5093576;28;20028;-71
2022/03/09 15:51:16;;;;;;;11.77;7.13;;;;;;;13.25;29.09;100865.50;5093133;28;20492;-70
2022/03/09 15:53:41;;;;;;;9.57;6.95;;;;;;;13.42;28.64;100859.00;5092830;28;20450;-71
2022/03/09 15:56:07;;;;;;;10.15;6.85;;;;;;;13.09;29.92;100862.84;5093004;28;20035;-70
2022/03/09 15:58:35;;;;;;;;;;;;;;;13.19;29.36;100858.97;5075670;28;20032;-71
2022/03/09 16:01:00;;;;;;;10.20;6.93;;;;;;;13.21;28.61;100854.28;5093371;28;19920;-71
2022/03/09 16:03:26;;;;;;;9.00;6.22;;;;;;;13.32;28.60;100850.41;5092627;28;20040;-71
2022/03/09 16:05:52;;;;;;;10.45;6.60;;;;;;;13.07;29.64;100851.50;5091800;28;20064;-70
2022/03/09 16:08:18;;;;;;;9.98;6.95;;;;;;;13.07;29.28;100863.03;5092740;28;20047;-70
2022/03/09 16:10:45;;;;;;;10.15;7.22;;;;;;;13.15;29.04;100854.97;5092978;28;20054;-70
2022/03/09 16:13:10;;;;;;;10.07;6.97;;;;;;;13.27;28.49;100856.25;5092636;28;20036;-71
2022/03/09 16:15:36;;;;;;;11.98;7.03;;;;;;;13.17;28.55;100842.25;5093589;28;20020;-71
2022/03/09 16:18:02;;;;;;;9.75;6.70;;;;;;;13.09;29.02;100862.84;5092585;28;20036;-71
2022/03/09 16:20:27;;;;;;;11.23;7.35;;;;;;;13.16;27.86;100843.25;5092693;28;20040;-71
2022/03/09 16:22:54;;;;;;;8.93;7.13;;;;;;;13.17;28.08;100852.09;5092159;28;20032;-71
2022/03/09 16:25:20;;;;;;;8.52;6.60;;;;;;;13.06;28.64;100857.88;5092391;28;20036;-71
2022/03/09 16:27:45;;;;;;;9.93;6.90;;;;;;;13.04;28.74;100864.22;5092506;28;20489;-71
2022/03/09 16:30:12;;;;;;;9.05;6.18;;;;;;;12.61;29.39;100862.88;5092364;28;20122;-71
2022/03/09 16:32:39;;;;;;;11.15;6.80;;;;;;;12.59;29.46;100864.88;5092076;28;20115;-71
2022/03/09 16:35:07;;;;;;;10.35;7.07;;;;;;;12.42;29.63;100864.09;5092308;28;20044;-71
2022/03/09 16:37:37;;;;;;;10.52;7.10;;;;;;;12.37;29.85;100858.41;5074147;28;20040;-71
2022/03/09 16:40:08;;;;;;;10.40;6.60;;;;;;;12.37;29.76;100868.25;5092423;28;20123;-71
2022/03/09 16:42:38;;;;;;;9.68;6.65;;;;;;;12.44;29.38;100861.22;5091992;28;20380;-71
2022/03/09 16:45:11;;;;;;;9.38;7.38;;;;;;;12.48;29.13;100865.25;5092198;28;20035;-71
2022/03/09 16:47:38;;;;;;;12.30;7.80;;;;;;;12.41;29.11;100872.28;5092305;28;20100;-71
2022/03/09 16:50:04;;;;;;;13.90;7.80;;;;;;;12.36;28.92;100872.78;5092363;28;20446;-71